Time;durP1;ratioP1;P1;durP2;ratioP2;P2;SDS_P1;SDS_P2;PMS_P1;PMS_P2;Temp;Humidity;BMP_temperature;BMP_pressure;BME280_temperature;BME280_humidity;BME280_pressure;Samples;Min_cycle;Max_cycle;Signal;HPM_P1;HPM_P2
2022/01/07 00:00:13;;;;;;;12.53;5.90;;;3.80;99.90;;;;;;4970503;28;20038;-69
2022/01/07 00:02:39;;;;;;;14.00;6.30;;;3.80;99.90;;;;;;4972217;28;20052;-69
2022/01/07 00:05:05;;;;;;;11.43;5.30;;;;;;;;;;4972064;28;20502;-69
2022/01/07 00:07:31;;;;;;;14.40;5.47;;;3.70;99.90;;;;;;4971311;28;20041;-69
2022/01/07 00:09:56;;;;;;;13.70;6.50;;;3.80;99.90;;;;;;4972503;28;20121;-69
2022/01/07 00:12:22;;;;;;;15.90;5.47;;;3.80;99.90;;;;;;4970688;28;20030;-69
2022/01/07 00:14:48;;;;;;;16.20;7.83;;;3.80;99.90;;;;;;4972492;28;20027;-69
2022/01/07 00:17:14;;;;;;;13.27;6.07;;;3.70;99.90;;;;;;4971967;28;20114;-69
2022/01/07 00:19:40;;;;;;;13.17;5.67;;;;;;;;;;4972103;28;20106;-69
2022/01/07 00:22:05;;;;;;;13.00;5.07;;;3.90;99.90;;;;;;4972179;28;20523;-69
2022/01/07 00:24:31;;;;;;;11.30;6.13;;;;;;;;;;4971469;28;20395;-69
2022/01/07 00:26:57;;;;;;;8.13;5.23;;;3.90;99.90;;;;;;4971126;28;20142;-69
2022/01/07 00:29:23;;;;;;;13.83;5.43;;;;;;;;;;4970698;28;20034;-69
2022/01/07 00:31:48;;;;;;;11.27;6.23;;;3.80;99.90;;;;;;4971828;28;20415;-69
2022/01/07 00:34:14;;;;;;;9.40;4.87;;;;;;;;;;4971518;28;20030;-69
2022/01/07 00:36:40;;;;;;;16.20;5.20;;;4.00;99.90;;;;;;4970477;28;20037;-69
2022/01/07 00:39:06;;;;;;;13.33;5.33;;;;;;;;;;4971370;28;20038;-69
2022/01/07 00:41:31;;;;;;;9.50;5.33;;;3.80;99.90;;;;;;4970093;28;20058;-69
2022/01/07 00:43:57;;;;;;;13.90;6.47;;;3.90;99.90;;;;;;4971219;28;20042;-69
2022/01/07 00:46:23;;;;;;;8.37;4.93;;;;;;;;;;4971060;28;20040;-69
2022/01/07 00:48:49;;;;;;;17.73;5.13;;;;;;;;;;4970856;28;20110;-69
2022/01/07 00:51:15;;;;;;;11.60;6.10;;;3.70;99.90;;;;;;4970935;28;20023;-68
2022/01/07 00:53:41;;;;;;;9.50;5.57;;;;;;;;;;4970994;28;20360;-69
2022/01/07 00:56:07;;;;;;;15.37;5.20;;;3.60;99.90;;;;;;4971165;28;20165;-69
2022/01/07 00:58:33;;;;;;;14.23;5.43;;;;;;;;;;4970898;28;20134;-69
2022/01/07 01:00:59;;;;;;;14.27;6.63;;;;;;;;;;4971710;28;20039;-69
2022/01/07 01:03:24;;;;;;;12.23;5.63;;;3.60;99.90;;;;;;4970762;28;20046;-69
2022/01/07 01:05:50;;;;;;;9.40;5.63;;;;;;;;;;4971820;28;20031;-68
2022/01/07 01:08:16;;;;;;;13.67;6.23;;;3.60;99.90;;;;;;4971226;28;20153;-68
2022/01/07 01:10:42;;;;;;;13.07;5.83;;;;;;;;;;4970563;28;20063;-69
2022/01/07 01:13:08;;;;;;;12.73;5.83;;;3.40;99.90;;;;;;4971730;28;20030;-69
2022/01/07 01:15:33;;;;;;;13.33;5.33;;;3.40;99.90;;;;;;4970933;28;20047;-69
2022/01/07 01:17:59;;;;;;;16.10;6.10;;;3.50;99.90;;;;;;4971369;28;20015;-69
2022/01/07 01:20:26;;;;;;;14.97;5.87;;;3.40;99.90;;;;;;4971374;28;20055;-69
2022/01/07 01:22:52;;;;;;;12.03;6.00;;;3.30;99.90;;;;;;4970717;28;20035;-69
2022/01/07 01:25:18;;;;;;;11.73;6.10;;;;;;;;;;4971255;28;20340;-69
2022/01/07 01:27:43;;;;;;;11.23;6.10;;;3.30;99.90;;;;;;4970719;28;20030;-69
2022/01/07 01:30:13;;;;;;;14.70;7.57;;;3.30;99.90;;;;;;4971312;28;20023;-69
2022/01/07 01:32:39;;;;;;;9.53;5.70;;;3.60;99.90;;;;;;4970442;28;20565;-69
2022/01/07 01:35:06;;;;;;;16.47;7.07;;;3.30;99.90;;;;;;4971332;28;20034;-69
2022/01/07 01:37:32;;;;;;;11.33;6.23;;;;;;;;;;4970488;28;20057;-69
2022/01/07 01:39:58;;;;;;;10.63;5.97;;;3.20;99.90;;;;;;4970804;28;20140;-69
2022/01/07 01:42:24;;;;;;;14.63;6.67;;;3.30;99.90;;;;;;4969579;28;20103;-69
2022/01/07 01:44:50;;;;;;;11.00;5.97;;;;;;;;;;4970718;28;20114;-69
2022/01/07 01:47:16;;;;;;;10.30;6.30;;;3.20;99.90;;;;;;4970957;28;20034;-69
2022/01/07 01:49:41;;;;;;;10.77;6.13;;;3.30;99.90;;;;;;4970599;28;20495;-69
2022/01/07 01:52:07;;;;;;;12.23;6.40;;;3.40;99.90;;;;;;4970537;28;20492;-69
2022/01/07 01:54:33;;;;;;;15.30;6.03;;;;;;;;;;4970579;28;20105;-69
2022/01/07 01:56:59;;;;;;;8.63;5.97;;;;;;;;;;4970391;28;20102;-69
2022/01/07 01:59:27;;;;;;;16.47;7.50;;;3.10;99.90;;;;;;4970745;28;20496;-69
2022/01/07 02:01:53;;;;;;;12.37;5.87;;;3.20;99.90;;;;;;4984939;28;20037;-69
2022/01/07 02:04:19;;;;;;;12.27;6.67;;;3.40;99.90;;;;;;4970609;28;20412;-69
2022/01/07 02:06:45;;;;;;;9.67;6.37;;;3.20;99.90;;;;;;4984624;28;20383;-69
2022/01/07 02:09:11;;;;;;;17.93;7.47;;;3.20;99.90;;;;;;4970396;28;20031;-69
2022/01/07 02:11:36;;;;;;;11.50;5.97;;;3.10;99.90;;;;;;4970176;28;20027;-69
2022/01/07 02:14:02;;;;;;;18.63;6.70;;;3.30;99.90;;;;;;4970213;28;20107;-69
2022/01/07 02:16:28;;;;;;;15.60;5.17;;;;;;;;;;4970687;28;20191;-69
2022/01/07 02:18:54;;;;;;;15.33;6.20;;;3.50;99.90;;;;;;4970496;28;20034;-69
2022/01/07 02:21:21;;;;;;;12.13;5.70;;;3.40;99.90;;;;;;4969453;28;20039;-69
2022/01/07 02:23:47;;;;;;;10.20;5.50;;;3.50;99.90;;;;;;4969618;28;20046;-69
2022/01/07 02:26:14;;;;;;;11.00;6.33;;;3.40;99.90;;;;;;4969771;28;20387;-69
2022/01/07 02:28:41;;;;;;;13.80;5.30;;;3.40;99.90;;;;;;4969975;28;20023;-69
2022/01/07 02:31:07;;;;;;;10.37;5.60;;;3.40;99.90;;;;;;4969416;28;20058;-69
2022/01/07 02:33:33;;;;;;;8.73;5.93;;;3.00;99.90;;;;;;4969902;28;20034;-70
2022/01/07 02:36:06;;;;;;;15.43;5.87;;;3.40;99.90;;;;;;4969425;28;20038;-70
2022/01/07 02:38:32;;;;;;;14.13;5.87;;;;;;;;;;4968735;28;20061;-70
2022/01/07 02:40:57;;;;;;;11.17;6.43;;;3.40;99.90;;;;;;4970013;28;20058;-69
2022/01/07 02:43:23;;;;;;;14.07;5.97;;;;;;;;;;4968930;28;20125;-70
2022/01/07 02:45:49;;;;;;;10.87;4.70;;;;;;;;;;4970022;28;20093;-70
2022/01/07 02:48:14;;;;;;;9.17;4.80;;;3.50;99.90;;;;;;4969637;28;20097;-69
2022/01/07 02:50:40;;;;;;;10.27;4.97;;;3.50;99.90;;;;;;4969328;28;20031;-69
2022/01/07 02:53:08;;;;;;;10.67;5.47;;;3.40;99.90;;;;;;4969481;28;20403;-70
2022/01/07 02:55:34;;;;;;;9.90;5.47;;;3.30;99.90;;;;;;4969527;28;20122;-70
2022/01/07 02:58:00;;;;;;;10.93;5.33;;;3.40;99.90;;;;;;4969251;28;20027;-70
2022/01/07 03:00:27;;;;;;;12.47;4.97;;;3.40;99.90;;;;;;4968947;28;20046;-69
2022/01/07 03:02:54;;;;;;;10.43;5.07;;;3.50;99.90;;;;;;4969403;28;20428;-70
2022/01/07 03:05:20;;;;;;;8.80;4.63;;;;;;;;;;4968925;28;20053;-70
2022/01/07 03:07:49;;;;;;;8.87;4.37;;;3.30;99.90;;;;;;4969711;28;20038;-70
2022/01/07 03:10:18;;;;;;;12.73;5.47;;;3.40;99.90;;;;;;4969218;28;20336;-70
2022/01/07 03:12:43;;;;;;;10.63;5.30;;;2.90;99.90;;;;;;4969142;28;20034;-70
2022/01/07 03:15:11;;;;;;;10.47;4.87;;;3.50;99.90;;;;;;4969172;28;20125;-70
2022/01/07 03:17:40;;;;;;;15.53;5.10;;;3.50;99.90;;;;;;4968680;28;20107;-70
2022/01/07 03:20:12;;;;;;;9.53;4.60;;;3.40;99.90;;;;;;4969067;28;20073;-70
2022/01/07 03:22:38;;;;;;;11.10;5.77;;;3.30;99.90;;;;;;4968756;28;20152;-70
2022/01/07 03:25:04;;;;;;;10.90;4.60;;;3.60;99.90;;;;;;4969462;28;20444;-69
2022/01/07 03:27:30;;;;;;;9.63;4.43;;;;;;;;;;4968880;28;20046;-70
2022/01/07 03:29:56;;;;;;;10.83;4.60;;;;;;;;;;4969080;28;20034;-70
2022/01/07 03:32:24;;;;;;;9.90;4.83;;;;;;;;;;4968996;28;20046;-69
2022/01/07 03:34:50;;;;;;;12.87;6.03;;;;;;;;;;4968427;28;20019;-69
2022/01/07 03:37:16;;;;;;;8.17;4.97;;;3.40;99.90;;;;;;4969416;28;20035;-70
2022/01/07 03:39:41;;;;;;;12.57;5.03;;;;;;;;;;4968414;28;20538;-69
2022/01/07 03:42:07;;;;;;;11.23;4.97;;;3.50;99.90;;;;;;4969237;28;20027;-69
2022/01/07 03:44:33;;;;;;;7.87;5.43;;;;;;;;;;4968540;28;20046;-70
2022/01/07 03:46:59;;;;;;;13.83;5.47;;;;;;;;;;4969253;28;20035;-70
2022/01/07 03:49:25;;;;;;;11.67;4.93;;;;;;;;;;4968546;28;20031;-69
2022/01/07 03:51:51;;;;;;;7.10;5.23;;;3.40;99.90;;;;;;4969145;28;20208;-69
2022/01/07 03:54:17;;;;;;;9.73;5.03;;;;;;;;;;4969227;28;20082;-70
2022/01/07 03:56:43;;;;;;;11.60;5.30;;;;;;;;;;4968568;28;20097;-70
2022/01/07 03:59:08;;;;;;;5.57;3.57;;;;;;;;;;4968927;28;20031;-70
2022/01/07 04:01:34;;;;;;;7.20;4.37;;;3.30;99.90;;;;;;4968737;28;20034;-69
2022/01/07 04:04:00;;;;;;;10.00;4.80;;;3.30;99.90;;;;;;4968525;28;20035;-70
2022/01/07 04:06:26;;;;;;;7.37;4.80;;;;;;;;;;4968799;28;20102;-70
2022/01/07 04:08:51;;;;;;;10.63;5.23;;;3.50;99.90;;;;;;4967620;28;20031;-70
2022/01/07 04:11:18;;;;;;;7.43;4.40;;;3.30;99.90;;;;;;4969257;28;20034;-70
2022/01/07 04:13:44;;;;;;;12.70;5.93;;;3.30;99.90;;;;;;4968493;28;20030;-69
2022/01/07 04:16:11;;;;;;;13.23;4.83;;;3.20;99.90;;;;;;4968950;28;20031;-70
2022/01/07 04:18:37;;;;;;;11.03;5.40;;;3.40;99.90;;;;;;4982830;28;20027;-70
2022/01/07 04:21:03;;;;;;;9.13;4.90;;;3.40;99.90;;;;;;4968865;28;20084;-70
2022/01/07 04:23:29;;;;;;;10.87;5.27;;;;;;;;;;4967508;28;20130;-69
2022/01/07 04:25:55;;;;;;;13.07;6.10;;;;;;;;;;4966606;28;20105;-70
2022/01/07 04:28:21;;;;;;;8.07;5.23;;;3.30;99.90;;;;;;4966725;28;20030;-69
2022/01/07 04:30:46;;;;;;;7.23;5.13;;;3.30;99.90;;;;;;4966101;28;20027;-69
2022/01/07 04:33:15;;;;;;;7.57;4.77;;;3.20;99.90;;;;;;4966562;28;20082;-70
2022/01/07 04:35:42;;;;;;;11.93;5.53;;;3.20;99.90;;;;;;4965972;28;20027;-70
2022/01/07 04:38:08;;;;;;;8.57;5.47;;;3.10;99.90;;;;;;4966802;28;20106;-70
2022/01/07 04:40:34;;;;;;;10.50;5.33;;;;;;;;;;4967346;28;20593;-69
2022/01/07 04:43:01;;;;;;;11.03;5.87;;;3.10;99.90;;;;;;4968624;28;20062;-70
2022/01/07 04:45:27;;;;;;;12.17;5.57;;;3.10;99.90;;;;;;4969099;28;20038;-70
2022/01/07 04:47:53;;;;;;;8.30;4.40;;;3.10;99.90;;;;;;4971618;28;20034;-70
2022/01/07 04:50:20;;;;;;;7.97;4.90;;;3.20;99.90;;;;;;4971304;28;20039;-69
2022/01/07 04:52:46;;;;;;;10.23;5.20;;;3.10;99.90;;;;;;4971314;28;20440;-70
2022/01/07 04:55:21;;;;;;;7.63;5.43;;;3.00;99.90;;;;;;4972146;28;20047;-70
2022/01/07 04:57:48;;;;;;;7.57;4.70;;;3.60;99.90;;;;;;4971416;28;20120;-70
2022/01/07 05:00:16;;;;;;;12.10;5.93;;;3.20;99.90;;;;;;4971706;28;20102;-70
2022/01/07 05:02:42;;;;;;;9.33;6.30;;;3.20;99.90;;;;;;4970956;28;20054;-70
2022/01/07 05:05:08;;;;;;;9.33;6.20;;;3.20;99.90;;;;;;4971952;28;20407;-70
2022/01/07 05:07:36;;;;;;;6.00;4.33;;;;;;;;;;4971715;28;20035;-70
2022/01/07 05:10:02;;;;;;;9.43;5.80;;;;;;;;;;4971684;28;20030;-70
2022/01/07 05:12:29;;;;;;;9.70;5.50;;;3.20;99.90;;;;;;4971752;28;20464;-70
2022/01/07 05:14:54;;;;;;;11.17;6.50;;;3.30;99.90;;;;;;4970650;28;20456;-70
2022/01/07 05:17:20;;;;;;;9.83;6.27;;;3.50;99.90;;;;;;4971266;28;20031;-70
2022/01/07 05:19:45;;;;;;;7.13;5.50;;;3.30;99.90;;;;;;4970764;28;20058;-70
2022/01/07 05:22:11;;;;;;;10.83;7.33;;;3.20;99.90;;;;;;4971641;28;20037;-70
2022/01/07 05:24:37;;;;;;;8.83;6.23;;;;;;;;;;4971218;28;20031;-70
2022/01/07 05:27:03;;;;;;;8.00;5.33;;;3.30;99.90;;;;;;4971186;28;20385;-70
2022/01/07 05:29:28;;;;;;;12.83;6.07;;;3.30;99.90;;;;;;4970958;28;20035;-69
2022/01/07 05:31:54;;;;;;;13.53;5.80;;;3.40;99.90;;;;;;4970679;28;20129;-69
2022/01/07 05:34:20;;;;;;;5.80;4.87;;;3.50;99.90;;;;;;4971335;28;20034;-70
2022/01/07 05:36:45;;;;;;;9.90;5.53;;;3.40;99.90;;;;;;4970956;28;20023;-70
2022/01/07 05:39:11;;;;;;;9.60;5.97;;;;;;;;;;4971088;28;20062;-70
2022/01/07 05:41:38;;;;;;;12.13;7.27;;;;;;;;;;4970932;28;20061;-69
2022/01/07 05:44:04;;;;;;;9.47;6.90;;;;;;;;;;4970026;28;20045;-70
2022/01/07 05:46:30;;;;;;;7.77;6.40;;;3.60;99.90;;;;;;4970338;28;20030;-69
2022/01/07 05:48:55;;;;;;;12.33;8.37;;;3.70;99.90;;;;;;4970177;28;20039;-70
2022/01/07 05:51:21;;;;;;;10.53;7.23;;;3.70;99.90;;;;;;4970967;28;20034;-70
2022/01/07 05:53:46;;;;;;;9.53;7.57;;;3.70;99.90;;;;;;4970595;28;20119;-69
2022/01/07 05:56:12;;;;;;;7.77;6.93;;;;;;;;;;4970114;28;20030;-69
2022/01/07 05:58:38;;;;;;;10.77;8.23;;;4.10;99.90;;;;;;4969628;28;20030;-70
2022/01/07 06:01:04;;;;;;;9.53;7.93;;;3.70;99.90;;;;;;4970293;28;20041;-70
2022/01/07 06:03:32;;;;;;;13.67;8.80;;;3.90;99.90;;;;;;4970432;28;20034;-70
2022/01/07 06:05:58;;;;;;;11.77;9.33;;;4.00;99.90;;;;;;4970079;28;20097;-69
2022/01/07 06:08:23;;;;;;;10.73;8.03;;;3.70;99.90;;;;;;4970430;28;20181;-69
2022/01/07 06:10:49;;;;;;;10.63;8.43;;;3.70;99.90;;;;;;4970624;28;20066;-70
2022/01/07 06:13:15;;;;;;;12.37;8.90;;;;;;;;;;4970078;28;20045;-70
2022/01/07 06:15:40;;;;;;;14.70;9.13;;;4.00;99.90;;;;;;4970190;28;20039;-70
2022/01/07 06:18:07;;;;;;;13.73;10.07;;;4.00;99.90;;;;;;4970014;28;20035;-69
2022/01/07 06:20:32;;;;;;;11.57;10.23;;;3.90;99.90;;;;;;4970716;28;20030;-69
2022/01/07 06:22:58;;;;;;;16.47;10.80;;;;;;;;;;4969959;28;20043;-69
2022/01/07 06:25:24;;;;;;;15.77;10.07;;;4.00;99.90;;;;;;4970351;28;20387;-69
2022/01/07 06:27:50;;;;;;;15.07;11.10;;;3.90;99.90;;;;;;4969799;28;20448;-70
2022/01/07 06:30:15;;;;;;;15.03;11.53;;;4.00;99.90;;;;;;4969994;28;20018;-70
2022/01/07 06:32:42;;;;;;;15.27;11.63;;;;;;;;;;4969928;28;20134;-69
2022/01/07 06:35:09;;;;;;;12.83;9.70;;;4.00;99.90;;;;;;4969513;28;20086;-70
2022/01/07 06:37:35;;;;;;;13.93;11.03;;;4.20;99.90;;;;;;4969795;28;20499;-70
2022/01/07 06:40:01;;;;;;;17.50;11.63;;;;;;;;;;4969528;28;20058;-70
2022/01/07 06:42:27;;;;;;;18.67;12.90;;;4.20;99.90;;;;;;4968982;28;20030;-70
2022/01/07 06:44:52;;;;;;;18.37;12.47;;;4.30;99.90;;;;;;4969693;28;20494;-70
2022/01/07 06:47:18;;;;;;;15.57;12.43;;;4.30;99.90;;;;;;4969254;28;20056;-70
2022/01/07 06:49:44;;;;;;;17.40;11.30;;;;;;;;;;4969499;28;20015;-70
2022/01/07 06:52:09;;;;;;;18.93;13.20;;;;;;;;;;4969511;28;20038;-70
2022/01/07 06:54:35;;;;;;;18.40;12.13;;;4.30;99.90;;;;;;4969756;28;20041;-70
2022/01/07 06:57:01;;;;;;;18.83;14.00;;;4.40;99.90;;;;;;4969157;28;20042;-70
2022/01/07 06:59:27;;;;;;;19.03;13.30;;;;;;;;;;4969356;28;20062;-70
2022/01/07 07:01:53;;;;;;;18.53;14.20;;;;;;;;;;4969149;28;20106;-70
2022/01/07 07:04:18;;;;;;;18.63;14.20;;;4.30;99.90;;;;;;4969396;28;20093;-70
2022/01/07 07:06:44;;;;;;;18.67;12.83;;;;;;;;;;4969519;28;20540;-70
2022/01/07 07:09:11;;;;;;;20.43;14.53;;;;;;;;;;4967957;28;20062;-70
2022/01/07 07:11:37;;;;;;;18.57;13.77;;;;;;;;;;4968842;28;20027;-70
2022/01/07 07:14:03;;;;;;;17.47;13.27;;;4.30;99.90;;;;;;4969511;28;20035;-70
2022/01/07 07:16:28;;;;;;;20.87;14.37;;;4.50;99.90;;;;;;4968207;28;20038;-70
2022/01/07 07:18:54;;;;;;;16.63;12.30;;;4.50;99.90;;;;;;4969424;28;20037;-70
2022/01/07 07:21:20;;;;;;;20.10;14.37;;;;;;;;;;4983943;28;20071;-70
2022/01/07 07:23:46;;;;;;;17.70;14.13;;;4.30;99.90;;;;;;4969081;28;20038;-70
2022/01/07 07:26:11;;;;;;;26.10;15.07;;;4.40;99.90;;;;;;4969033;28;20102;-70
2022/01/07 07:28:38;;;;;;;19.17;13.80;;;;;;;;;;4983957;28;20027;-70
2022/01/07 07:31:08;;;;;;;18.47;13.50;;;4.40;99.90;;;;;;4968964;28;20189;-70
2022/01/07 07:34:06;;;;;;;24.90;14.10;;;4.40;99.90;;;;;;4969042;28;20089;-69
2022/01/07 07:36:31;;;;;;;19.60;14.32;;;4.50;99.90;;;;;;4969038;28;20122;-69
2022/01/07 07:39:03;;;;;;;17.43;14.40;;;4.50;99.90;;;;;;4969046;28;20043;-69
2022/01/07 07:41:29;;;;;;;19.13;13.83;;;;;;;;;;4968300;28;20045;-69
2022/01/07 07:43:56;;;;;;;17.33;12.93;;;4.60;99.90;;;;;;4968962;28;20047;-69
2022/01/07 07:46:22;;;;;;;20.23;13.27;;;4.50;99.90;;;;;;4969050;28;20031;-69
2022/01/07 07:48:48;;;;;;;17.73;14.03;;;4.60;99.90;;;;;;4968046;28;20078;-68
2022/01/07 07:51:14;;;;;;;23.57;14.73;;;4.70;99.90;;;;;;4983769;28;20022;-69
2022/01/07 07:53:40;;;;;;;15.70;14.07;;;;;;;;;;4968749;28;20031;-68
2022/01/07 07:56:06;;;;;;;21.07;13.70;;;4.60;99.90;;;;;;4966917;28;20069;-69
2022/01/07 07:58:32;;;;;;;16.83;15.07;;;;;;;;;;4968967;28;20066;-69
2022/01/07 08:00:57;;;;;;;20.50;15.00;;;4.70;99.90;;;;;;4968759;28;20047;-68
2022/01/07 08:03:24;;;;;;;20.87;16.27;;;4.80;99.90;;;;;;4968310;28;20057;-68
2022/01/07 08:05:50;;;;;;;19.43;14.67;;;4.70;99.90;;;;;;4967997;28;20094;-68
2022/01/07 08:08:16;;;;;;;27.40;15.60;;;4.90;99.90;;;;;;4969104;28;20035;-68
2022/01/07 08:10:48;;;;;;;16.47;13.70;;;4.80;99.90;;;;;;4959284;28;20469;-68
2022/01/07 08:15:59;;;;;;;23.60;15.87;;;4.70;99.90;;;;;;4948081;28;20050;-68
2022/01/07 08:18:35;;;;;;;22.00;14.93;;;4.70;99.90;;;;;;4948744;28;20507;-67
2022/01/07 08:21:07;;;;;;;22.93;15.87;;;4.60;99.90;;;;;;4949743;28;20248;-67
2022/01/07 08:23:33;;;;;;;21.80;14.80;;;4.80;99.90;;;;;;4965250;28;20115;-67
2022/01/07 08:26:00;;;;;;;31.87;16.50;;;4.80;99.90;;;;;;4970719;28;20046;-67
2022/01/07 08:28:29;;;;;;;25.80;15.10;;;4.40;99.90;;;;;;4971039;28;20037;-67
2022/01/07 08:36:24;;;;;;;15.50;13.93;;;4.80;99.90;;;;;;4971254;28;20355;-67
2022/01/07 08:38:50;;;;;;;21.60;16.47;;;4.80;99.90;;;;;;4969671;28;20058;-68
2022/01/07 08:41:17;;;;;;;28.23;15.70;;;4.90;99.90;;;;;;4971105;28;20165;-68
2022/01/07 08:43:43;;;;;;;23.67;15.33;;;;;;;;;;4970626;28;20114;-68
2022/01/07 08:46:09;;;;;;;21.30;15.00;;;5.10;99.90;;;;;;4970229;28;20405;-68
2022/01/07 08:48:36;;;;;;;20.13;15.20;;;5.10;99.90;;;;;;4970427;28;20379;-69
2022/01/07 08:51:05;;;;;;;17.97;14.63;;;4.90;99.90;;;;;;4970131;28;20023;-69
2022/01/07 08:53:32;;;;;;;26.97;16.70;;;;;;;;;;4968493;28;20117;-68
2022/01/07 08:55:57;;;;;;;17.97;14.63;;;5.20;99.90;;;;;;4969249;28;20102;-68
2022/01/07 08:58:23;;;;;;;19.17;13.93;;;;;;;;;;4969723;28;20090;-68
2022/01/07 09:00:49;;;;;;;21.43;14.60;;;5.20;99.90;;;;;;4969329;28;20485;-67
2022/01/07 09:03:15;;;;;;;23.17;15.60;;;;;;;;;;4970250;28;20030;-68
2022/01/07 09:05:41;;;;;;;18.70;14.60;;;;;;;;;;4970626;28;20026;-67
2022/01/07 09:08:09;;;;;;;20.40;14.70;;;;;;;;;;4969305;28;20050;-67
2022/01/07 09:10:36;;;;;;;18.57;15.57;;;5.20;99.90;;;;;;4970325;28;20130;-68
2022/01/07 09:13:02;;;;;;;20.90;15.07;;;;;;;;;;4969672;28;20042;-67
2022/01/07 09:15:27;;;;;;;17.43;14.23;;;5.20;99.90;;;;;;4968696;28;20049;-67
2022/01/07 09:17:53;;;;;;;16.37;14.10;;;5.20;99.90;;;;;;4970439;28;20058;-67
2022/01/07 09:20:20;;;;;;;21.33;15.43;;;5.10;99.90;;;;;;4963510;28;20027;-68
2022/01/07 09:22:46;;;;;;;17.40;14.47;;;5.40;99.90;;;;;;4961874;28;20468;-68
2022/01/07 09:25:11;;;;;;;15.93;14.30;;;5.40;99.90;;;;;;4970829;28;20031;-68
2022/01/07 09:27:38;;;;;;;23.17;15.90;;;;;;;;;;4969731;28;20038;-68
2022/01/07 09:30:04;;;;;;;16.83;15.03;;;;;;;;;;4970892;28;20046;-68
2022/01/07 09:32:30;;;;;;;21.67;15.17;;;5.50;99.90;;;;;;4969428;28;20066;-68
2022/01/07 09:34:56;;;;;;;17.37;13.17;;;;;;;;;;4970252;28;20133;-68
2022/01/07 09:37:21;;;;;;;25.13;15.77;;;5.50;99.90;;;;;;4970087;28;20410;-68
2022/01/07 09:39:49;;;;;;;21.00;14.77;;;5.50;99.90;;;;;;4969295;28;20050;-68
2022/01/07 09:42:15;;;;;;;22.17;15.03;;;;;;;;;;4965423;28;20043;-69
2022/01/07 09:44:43;;;;;;;22.43;14.33;;;5.50;99.90;;;;;;4969493;28;20456;-69
2022/01/07 09:47:11;;;;;;;20.63;14.23;;;5.50;99.90;;;;;;4969355;28;20029;-68
2022/01/07 09:49:37;;;;;;;20.33;13.80;;;5.50;99.90;;;;;;4970617;28;20030;-68
2022/01/07 09:52:04;;;;;;;20.63;14.90;;;5.70;99.90;;;;;;4969524;28;20027;-69
2022/01/07 09:54:32;;;;;;;21.37;14.70;;;5.40;99.90;;;;;;4969720;28;20019;-68
2022/01/07 09:56:57;;;;;;;19.13;14.07;;;5.60;99.90;;;;;;4970290;28;20062;-68
2022/01/07 09:59:23;;;;;;;25.27;13.47;;;5.80;99.90;;;;;;4969716;28;20456;-69
2022/01/07 10:02:00;;;;;;;16.70;13.67;;;5.70;99.90;;;;;;4968088;28;20507;-68
2022/01/07 10:04:33;;;;;;;25.63;13.93;;;5.80;99.90;;;;;;4969270;28;20035;-68
2022/01/07 10:07:20;;;;;;;20.47;14.30;;;5.80;99.90;;;;;;4967763;28;20322;-69
2022/01/07 10:10:07;;;;;;;17.53;13.97;;;5.80;99.90;;;;;;4966546;28;20033;-68
2022/01/07 10:13:00;;;;;;;17.13;13.47;;;5.90;99.90;;;;;;4969588;28;20080;-68
2022/01/07 10:15:28;;;;;;;21.30;14.03;;;6.00;99.90;;;;;;4969203;28;20054;-68
2022/01/07 10:17:55;;;;;;;24.37;14.27;;;;;;;;;;4969620;28;20027;-68
2022/01/07 10:20:24;;;;;;;17.50;13.27;;;6.00;99.90;;;;;;4965033;28;20031;-68
2022/01/07 10:23:01;;;;;;;19.63;13.87;;;6.70;99.90;;;;;;4969933;28;20031;-68
2022/01/07 10:25:29;;;;;;;18.00;14.40;;;6.70;99.90;;;;;;4967193;28;20061;-68
2022/01/07 10:28:10;;;;;;;17.93;13.30;;;6.80;99.90;;;;;;4967762;28;20027;-68
2022/01/07 10:30:38;;;;;;;17.47;14.87;;;7.00;99.90;;;;;;4968703;28;20050;-68
2022/01/07 10:33:15;;;;;;;21.23;13.37;;;6.70;99.90;;;;;;4969420;28;20051;-68
2022/01/07 10:35:40;;;;;;;19.87;13.37;;;;;;;;;;4969183;28;20042;-68
2022/01/07 10:38:06;;;;;;;20.23;14.10;;;6.60;99.90;;;;;;4968272;28;20084;-68
2022/01/07 10:40:32;;;;;;;16.97;12.33;;;;;;;;;;4968872;28;20035;-68
2022/01/07 10:43:15;;;;;;;18.13;12.37;;;6.40;99.90;;;;;;4968690;28;20254;-68
2022/01/07 10:45:44;;;;;;;15.30;11.77;;;6.50;99.90;;;;;;4967720;28;20034;-68
2022/01/07 10:48:11;;;;;;;18.73;11.97;;;6.30;99.90;;;;;;4968841;28;20266;-67
2022/01/07 10:50:49;;;;;;;15.20;11.30;;;6.40;99.90;;;;;;4966881;28;20413;-68
2022/01/07 10:53:27;;;;;;;16.67;10.43;;;6.50;99.90;;;;;;4968235;28;20038;-68
2022/01/07 10:56:16;;;;;;;13.77;10.10;;;6.60;99.90;;;;;;4968875;28;20114;-68
2022/01/07 10:58:50;;;;;;;13.63;10.67;;;6.60;99.90;;;;;;4967887;28;20620;-68
2022/01/07 11:01:19;;;;;;;;;;;6.80;99.90;;;;;;4968658;28;20058;-68
2022/01/07 11:03:45;;;;;;;16.00;9.37;;;;;;;;;;4967973;28;19973;-68
2022/01/07 11:06:11;;;;;;;14.23;9.40;;;;;;;;;;4968594;28;20552;-68
2022/01/07 11:08:37;;;;;;;12.27;8.23;;;6.90;99.90;;;;;;4968469;28;20038;-68
2022/01/07 11:11:04;;;;;;;18.77;10.83;;;;;;;;;;4968753;28;20069;-68
2022/01/07 11:13:30;;;;;;;12.60;8.57;;;6.90;99.90;;;;;;4967033;28;20437;-68
2022/01/07 11:15:56;;;;;;;11.47;9.43;;;;;;;;;;4967675;28;20031;-68
2022/01/07 11:18:22;;;;;;;12.97;8.20;;;;;;;;;;4967489;28;20031;-68
2022/01/07 11:20:48;;;;;;;11.43;8.17;;;;;;;;;;4966934;28;20093;-68
2022/01/07 11:23:13;;;;;;;12.13;8.83;;;6.70;99.90;;;;;;4968890;28;20917;-68
2022/01/07 11:25:39;;;;;;;13.37;9.00;;;;;;;;;;4965551;28;20055;-68
2022/01/07 11:28:15;;;;;;;13.17;8.83;;;7.10;99.90;;;;;;4967853;28;20035;-68
2022/01/07 11:30:41;;;;;;;15.27;8.17;;;6.70;99.90;;;;;;4966171;28;20031;-68
2022/01/07 11:33:21;;;;;;;10.80;8.57;;;6.70;99.90;;;;;;4966306;28;20050;-68
2022/01/07 11:35:47;;;;;;;17.87;9.33;;;6.80;99.90;;;;;;4956876;28;20423;-68
2022/01/07 11:38:31;;;;;;;15.87;9.70;;;6.50;99.90;;;;;;4956544;28;20037;-69
2022/01/07 11:40:57;;;;;;;13.03;9.13;;;;;;;;;;4957587;28;20031;-69
2022/01/07 11:43:24;;;;;;;12.47;8.47;;;;;;;;;;4967771;28;20115;-68
2022/01/07 11:45:50;;;;;;;10.93;7.57;;;7.10;99.90;;;;;;4967455;28;20030;-68
2022/01/07 11:48:22;;;;;;;10.67;7.60;;;6.90;99.90;;;;;;4966814;28;20031;-68
2022/01/07 11:51:09;;;;;;;12.27;7.73;;;7.10;99.90;;;;;;4967672;28;20030;-68
2022/01/07 11:53:41;;;;;;;16.93;7.20;;;7.10;99.90;;;;;;4967649;28;20066;-68
2022/01/07 11:56:08;;;;;;;16.57;7.77;;;6.90;99.90;;;;;;4972139;28;20476;-68
2022/01/07 11:59:10;;;;;;;13.20;6.90;;;6.70;99.90;;;;;;4972199;28;20085;-68
2022/01/07 12:01:39;;;;;;;15.23;6.67;;;6.90;99.90;;;;;;4960793;28;20043;-69
2022/01/07 12:04:14;;;;;;;7.97;5.47;;;6.80;99.90;;;;;;4965547;28;20049;-68
2022/01/07 12:06:40;;;;;;;9.30;6.00;;;;;;;;;;4967082;28;20059;-68
2022/01/07 12:09:08;;;;;;;11.07;6.27;;;;;;;;;;4971811;28;20564;-68
2022/01/07 12:11:39;;;;;;;9.53;6.37;;;6.50;99.90;;;;;;4972170;28;20126;-68
2022/01/07 12:14:12;;;;;;;11.70;5.47;;;7.00;99.90;;;;;;4971712;28;20026;-68
2022/01/07 12:16:39;;;;;;;15.60;5.47;;;6.70;99.90;;;;;;4971859;28;20456;-68
2022/01/07 12:19:18;;;;;;;17.30;6.40;;;7.00;99.90;;;;;;4971661;28;20031;-68
2022/01/07 12:21:45;;;;;;;16.40;6.13;;;6.90;99.90;;;;;;4971933;28;20061;-68
2022/01/07 12:24:13;;;;;;;13.60;6.93;;;6.90;99.90;;;;;;4971621;28;20038;-68
2022/01/07 12:26:40;;;;;;;12.57;5.70;;;7.00;99.90;;;;;;4971603;28;20027;-68
2022/01/07 12:29:05;;;;;;;11.07;5.53;;;6.50;99.90;;;;;;4969868;28;20027;-68
2022/01/07 12:31:31;;;;;;;9.37;5.80;;;7.10;99.90;;;;;;4971077;28;20058;-68
2022/01/07 12:33:59;;;;;;;15.60;6.73;;;6.90;99.90;;;;;;4970208;28;20031;-68
2022/01/07 12:36:30;;;;;;;9.07;4.97;;;6.90;99.90;;;;;;4972156;28;20035;-68
2022/01/07 12:39:10;;;;;;;10.50;6.67;;;6.90;99.90;;;;;;4972094;28;20019;-68
2022/01/07 12:41:39;;;;;;;22.47;7.10;;;6.90;99.90;;;;;;4972059;28;20097;-68
2022/01/07 12:44:10;;;;;;;7.40;5.60;;;7.20;99.90;;;;;;4971391;28;20047;-68
2022/01/07 12:46:36;;;;;;;12.50;7.03;;;;;;;;;;4971663;28;20027;-68
2022/01/07 12:49:02;;;;;;;14.57;7.50;;;7.00;99.90;;;;;;4970616;28;20058;-67
2022/01/07 12:51:31;;;;;;;8.90;6.63;;;6.90;99.90;;;;;;4971379;28;20074;-68
2022/01/07 12:53:58;;;;;;;9.37;7.13;;;6.90;99.90;;;;;;4970678;28;20030;-68
2022/01/07 12:56:27;;;;;;;9.93;6.30;;;6.70;99.90;;;;;;4971043;28;20399;-68
2022/01/07 12:58:53;;;;;;;8.97;6.40;;;;;;;;;;4970415;28;20528;-67
2022/01/07 13:01:29;;;;;;;13.43;7.37;;;6.90;99.90;;;;;;4971076;28;20039;-68
2022/01/07 13:04:03;;;;;;;9.20;6.47;;;6.80;99.90;;;;;;4969438;28;20026;-68
2022/01/07 13:06:29;;;;;;;17.70;7.80;;;6.60;99.90;;;;;;4970249;28;20023;-68
2022/01/07 13:08:54;;;;;;;13.00;6.27;;;6.90;99.90;;;;;;4970524;28;20033;-68
2022/01/07 13:11:20;;;;;;;12.07;5.50;;;6.80;99.90;;;;;;4971099;28;20440;-68
2022/01/07 13:13:46;;;;;;;8.50;6.37;;;;;;;;;;4970685;28;20023;-68
2022/01/07 13:16:19;;;;;;;16.50;7.03;;;6.80;99.90;;;;;;4970856;28;20782;-68
2022/01/07 13:18:45;;;;;;;12.55;6.97;;;6.70;99.90;;;;;;4967897;28;20054;-68
2022/01/07 13:21:13;;;;;;;11.90;6.40;;;6.80;99.90;;;;;;4970607;28;20034;-68